Time;durP1;ratioP1;P1;durP2;ratioP2;P2;SDS_P1;SDS_P2;PMS_P1;PMS_P2;Temp;Humidity;BMP_temperature;BMP_pressure;BME280_temperature;BME280_humidity;BME280_pressure;Samples;Min_cycle;Max_cycle;Signal;HPM_P1;HPM_P2
2023/06/23 00:01:02;;;;;;;0.80;0.80;;;;;;;22.72;71.22;98568.16;5158510;27;41058;-76
2023/06/23 00:03:30;;;;;;;1.30;0.93;;;;;;;22.81;70.90;98593.25;5195127;27;42960;-76
2023/06/23 00:06:00;;;;;;;1.50;0.90;;;;;;;22.81;71.58;98587.84;5158649;27;42326;-75
2023/06/23 00:08:27;;;;;;;1.03;0.80;;;;;;;22.81;70.98;98583.28;5195452;27;39791;-76
2023/06/23 00:10:56;;;;;;;0.83;0.73;;;;;;;22.82;71.64;98578.72;5158307;27;41959;-76
2023/06/23 00:13:26;;;;;;;0.67;0.67;;;;;;;22.81;71.35;98586.00;5195104;27;42803;-76
2023/06/23 00:15:54;;;;;;;1.20;0.80;;;;;;;22.73;70.79;98579.78;5175740;27;42315;-76
2023/06/23 00:18:22;;;;;;;1.53;0.70;;;;;;;22.78;71.37;98588.19;5195073;27;40016;-76
2023/06/23 00:20:49;;;;;;;1.37;0.77;;;;;;;22.73;71.43;98571.69;5194605;27;42599;-77
2023/06/23 00:23:17;;;;;;;2.53;0.80;;;;;;;22.66;71.17;98576.94;5158690;27;43219;-75
2023/06/23 00:25:45;;;;;;;2.83;0.70;;;;;;;22.77;70.91;98597.31;5175775;27;42235;-76
2023/06/23 00:28:12;;;;;;;1.07;0.70;;;;;;;22.78;70.94;98591.75;5158628;27;39980;-76
2023/06/23 00:30:42;;;;;;;0.70;0.70;;;;;;;22.66;71.18;98587.75;5158274;27;40630;-76
2023/06/23 00:33:09;;;;;;;0.63;0.60;;;;;;;22.73;71.28;98607.63;5158470;27;41733;-76
2023/06/23 00:35:37;;;;;;;0.73;0.73;;;;;;;22.68;71.87;98609.16;5158675;27;41662;-76
2023/06/23 00:38:05;;;;;;;1.60;0.60;;;;;;;22.55;72.08;98593.56;5176506;27;39534;-75
2023/06/23 00:40:32;;;;;;;1.37;0.50;;;;;;;22.61;72.16;98608.22;5159018;27;40681;-76
2023/06/23 00:43:00;;;;;;;0.47;0.47;;;;;;;22.61;72.17;98608.22;5176692;27;42631;-75
2023/06/23 00:45:28;;;;;;;2.13;0.60;;;;;;;22.53;72.20;98600.97;5195202;27;43234;-75
2023/06/23 00:47:57;;;;;;;0.67;0.50;;;;;;;22.56;72.46;98612.28;5159213;27;38806;-75
2023/06/23 00:50:26;;;;;;;0.80;0.40;;;;;;;22.50;72.41;98590.56;5174434;27;42508;-76
2023/06/23 00:52:56;;;;;;;2.30;0.60;;;;;;;22.54;72.58;98608.91;5157956;27;43110;-75
2023/06/23 00:55:26;;;;;;;0.47;0.47;;;;;;;22.55;71.72;98618.69;5175456;27;42868;-75
2023/06/23 00:57:56;;;;;;;0.77;0.60;;;;;;;22.55;71.72;98618.69;5197205;27;40592;-75
2023/06/23 01:00:27;;;;;;;0.70;0.40;;;;;;;22.54;71.80;98617.00;5197668;27;43840;-75
2023/06/23 01:02:59;;;;;;;0.60;0.30;;;;;;;22.51;71.52;98611.97;5161747;27;41604;-76
2023/06/23 01:05:30;;;;;;;0.40;0.40;;;;;;;22.47;71.56;98623.31;5177476;27;42112;-75
2023/06/23 01:08:08;;;;;;;0.30;0.30;;;;;;;22.48;71.27;98620.44;5194850;27;40050;-76
2023/06/23 01:10:41;;;;;;;1.50;0.50;;;;;;;22.43;70.74;98624.66;5161466;27;40756;-75
2023/06/23 01:13:18;;;;;;;1.23;0.40;;;;;;;22.42;70.57;98613.03;5161674;27;42097;-75
2023/06/23 01:15:51;;;;;;;0.40;0.40;;;;;;;22.39;71.22;98621.47;5178014;27;42307;-76
2023/06/23 01:18:27;;;;;;;0.40;0.40;;;;;;;22.32;70.96;98620.50;5194760;27;39937;-75
2023/06/23 01:21:01;;;;;;;1.93;0.60;;;;;;;22.36;70.05;98637.19;5178921;27;40671;-75
2023/06/23 01:23:54;;;;;;;1.10;1.00;;;;;;;22.29;70.03;98626.25;5161430;27;42854;-75
2023/06/23 01:26:39;;;;;;;1.30;1.20;;;;;;;22.28;69.51;98642.59;5178437;27;42096;-76
2023/06/23 01:29:10;;;;;;;1.67;1.57;;;;;;;22.24;69.29;98646.69;5175700;27;40803;-75
2023/06/23 01:31:43;;;;;;;3.60;1.70;;;;;;;22.21;68.79;98655.97;5178835;27;42643;-75
2023/06/23 01:34:14;;;;;;;2.23;1.57;;;;;;;22.15;69.08;98667.44;5161758;27;41583;-75
2023/06/23 01:36:49;;;;;;;4.07;2.00;;;;;;;22.12;69.44;98662.41;5162104;27;41529;-75
2023/06/23 01:39:21;;;;;;;2.97;2.33;;;;;;;21.98;68.69;98653.16;5179897;27;38907;-75
2023/06/23 01:41:54;;;;;;;2.73;2.10;;;;;;;22.02;68.29;98661.75;5162292;27;41839;-75
2023/06/23 01:44:25;;;;;;;3.23;2.30;;;;;;;21.92;68.07;98655.69;5176346;27;43809;-75
2023/06/23 01:46:56;;;;;;;2.40;2.13;;;;;;;21.88;68.32;98661.41;5176380;27;42386;-75
2023/06/23 01:49:27;;;;;;;2.70;2.50;;;;;;;21.94;68.10;98675.22;5176184;27;40776;-74
2023/06/23 01:51:56;;;;;;;2.97;2.67;;;;;;;21.73;68.19;98657.75;5179168;27;41869;-75
2023/06/23 01:54:26;;;;;;;3.23;2.93;;;;;;;21.81;67.86;98683.84;5179310;27;42701;-75
2023/06/23 01:56:56;;;;;;;3.83;3.00;;;;;;;21.77;68.15;98696.81;5179301;27;42511;-75
2023/06/23 01:59:25;;;;;;;3.83;3.20;;;;;;;21.70;67.64;98695.84;5179035;27;41660;-75
2023/06/23 02:01:56;;;;;;;3.80;3.50;;;;;;;21.68;67.85;98684.38;5161043;27;40777;-74
2023/06/23 02:04:24;;;;;;;3.30;3.00;;;;;;;21.59;67.92;98676.47;5159867;27;42052;-75
2023/06/23 02:06:53;;;;;;;3.47;3.17;;;;;;;21.56;67.77;98666.03;5196886;27;43319;-76
2023/06/23 02:09:25;;;;;;;4.53;4.10;;;;;;;21.62;67.49;98687.75;5177554;27;39770;-75
2023/06/23 02:11:55;;;;;;;5.07;3.67;;;;;;;21.60;67.55;98678.16;5160626;27;40921;-75
2023/06/23 02:14:27;;;;;;;3.80;3.50;;;;;;;21.51;67.71;98664.66;5160403;27;42084;-75
2023/06/23 02:16:56;;;;;;;3.90;3.50;;;;;;;21.55;67.37;98681.34;5177988;27;42273;-76
2023/06/23 02:19:25;;;;;;;4.50;3.77;;;;;;;21.52;67.12;98687.06;5177725;27;40984;-76
2023/06/23 02:21:55;;;;;;;5.17;3.50;;;;;;;21.42;67.47;98681.88;5177805;27;41732;-75
2023/06/23 02:24:24;;;;;;;5.00;3.70;;;;;;;21.35;66.67;98680.03;5160087;27;41923;-75
2023/06/23 02:26:53;;;;;;;4.23;3.67;;;;;;;21.39;66.66;98692.97;5160320;27;42229;-76
2023/06/23 02:29:22;;;;;;;5.70;3.53;;;;;;;21.34;66.21;98699.88;5177462;27;39943;-75
2023/06/23 02:31:51;;;;;;;4.57;3.70;;;;;;;21.33;66.20;98692.81;5177542;27;42349;-76
2023/06/23 02:34:19;;;;;;;3.80;3.50;;;;;;;21.20;65.94;98692.47;5196866;27;43722;-74
2023/06/23 02:36:49;;;;;;;5.50;3.80;;;;;;;21.22;66.25;98694.00;5161256;27;41299;-75
2023/06/23 02:39:20;;;;;;;3.67;3.30;;;;;;;21.22;66.74;98695.84;5178457;27;40778;-76
2023/06/23 02:41:55;;;;;;;4.57;3.23;;;;;;;21.23;66.54;98694.84;5160792;27;40385;-75
2023/06/23 02:44:31;;;;;;;4.27;3.37;;;;;;;21.26;66.32;98703.44;5175468;27;43670;-76
2023/06/23 02:47:03;;;;;;;3.80;3.37;;;;;;;21.26;66.23;98697.19;5160932;27;41298;-75
2023/06/23 02:49:31;;;;;;;5.03;3.80;;;;;;;21.30;66.31;98704.75;5178501;27;40713;-75
2023/06/23 02:52:02;;;;;;;4.10;3.70;;;;;;;21.32;66.63;98704.59;5160642;27;42419;-75
2023/06/23 02:54:35;;;;;;;3.57;3.27;;;;;;;21.24;66.25;98688.44;5178284;27;43552;-75
2023/06/23 02:57:05;;;;;;;4.37;3.67;;;;;;;21.26;65.97;98707.97;5161185;27;41256;-75
2023/06/23 02:59:35;;;;;;;3.60;3.30;;;;;;;21.24;65.76;98710.84;5178060;27;38966;-75
2023/06/23 03:02:07;;;;;;;3.70;3.40;;;;;;;21.24;65.96;98716.22;5160124;27;41686;-75
2023/06/23 03:04:36;;;;;;;3.50;3.20;;;;;;;21.29;65.63;98723.78;5192903;27;43330;-76
2023/06/23 03:07:05;;;;;;;4.07;3.63;;;;;;;21.32;66.08;98726.16;5176846;27;42240;-75
2023/06/23 03:09:35;;;;;;;4.40;3.93;;;;;;;21.32;65.76;98734.22;5176989;27;40710;-75
2023/06/23 03:12:02;;;;;;;5.40;4.00;;;;;;;21.35;66.25;98729.34;5159529;27;42233;-75
2023/06/23 03:14:30;;;;;;;7.60;4.57;;;;;;;21.26;66.51;98724.97;5159405;27;42867;-76
2023/06/23 03:17:05;;;;;;;4.50;4.10;;;;;;;21.28;66.53;98728.31;5177213;27;42014;-77
2023/06/23 03:19:39;;;;;;;4.47;4.07;;;;;;;21.29;67.09;98721.09;5173209;27;40968;-75
2023/06/23 03:22:12;;;;;;;4.70;4.30;;;;;;;21.32;67.01;98729.69;5159400;27;42011;-75
2023/06/23 03:24:43;;;;;;;4.47;4.07;;;;;;;21.31;67.11;98727.16;5174164;27;43426;-76
2023/06/23 03:27:13;;;;;;;4.77;4.20;;;;;;;21.29;66.90;98723.78;5159393;27;43310;-76
2023/06/23 03:29:46;;;;;;;5.47;4.40;;;;;;;21.30;66.67;98728.16;5159195;27;38940;-75
2023/06/23 03:32:19;;;;;;;5.93;4.60;;;;;;;21.21;66.62;98726.47;5176676;27;40655;-74
2023/06/23 03:35:05;;;;;;;4.60;4.17;;;;;;;21.19;66.64;98717.72;5159983;27;41738;-75
2023/06/23 03:37:37;;;;;;;4.70;4.30;;;;;;;21.24;66.66;98736.91;5193268;27;42325;-75
2023/06/23 03:40:09;;;;;;;4.40;4.00;;;;;;;21.20;66.25;98724.78;5177685;27;39068;-75
2023/06/23 03:42:42;;;;;;;5.20;4.27;;;;;;;21.22;66.29;98728.16;5177785;27;41660;-74
2023/06/23 03:45:13;;;;;;;4.07;3.67;;;;;;;21.25;65.66;98727.84;5193686;27;42506;-74
2023/06/23 03:47:43;;;;;;;4.50;4.10;;;;;;;21.26;66.16;98729.53;5194606;27;41564;-76
2023/06/23 03:50:17;;;;;;;4.10;3.70;;;;;;;21.25;65.83;98735.91;5195339;27;39439;-76
2023/06/23 03:52:46;;;;;;;4.57;4.17;;;;;;;21.29;65.81;98734.56;5158989;27;41995;-74
2023/06/23 03:55:15;;;;;;;4.50;3.80;;;;;;;21.21;65.17;98726.47;5158547;27;42724;-76
2023/06/23 03:57:45;;;;;;;4.93;3.80;;;;;;;21.20;64.72;98740.94;5158541;27;42318;-76
2023/06/23 04:00:15;;;;;;;4.10;3.80;;;;;;;20.99;64.75;98707.22;5158466;27;40964;-76
2023/06/23 04:02:45;;;;;;;4.27;3.87;;;;;;;21.30;64.46;98757.78;5175739;27;40341;-77
2023/06/23 04:05:16;;;;;;;4.57;3.97;;;;;;;21.28;64.64;98754.41;5176343;27;43583;-77
2023/06/23 04:07:46;;;;;;;5.80;4.07;;;;;;;21.24;64.51;98737.75;5173266;27;42962;-77
2023/06/23 04:10:19;;;;;;;4.10;3.70;;;;;;;21.32;64.42;98750.38;5176135;27;40300;-77
2023/06/23 04:12:49;;;;;;;3.87;3.57;;;;;;;21.35;63.97;98752.75;5173204;27;42481;-78
2023/06/23 04:15:19;;;;;;;4.10;3.70;;;;;;;21.37;64.11;98756.13;5158622;27;42737;-76
2023/06/23 04:17:49;;;;;;;4.30;3.90;;;;;;;21.08;63.76;98710.78;5176233;27;42076;-76
2023/06/23 04:20:19;;;;;;;4.10;3.70;;;;;;;21.38;63.98;98757.81;5175874;27;38905;-76
2023/06/23 04:22:49;;;;;;;5.17;3.73;;;;;;;21.23;63.99;98735.22;5158390;27;42023;-76
2023/06/23 04:25:20;;;;;;;4.33;3.93;;;;;;;21.31;63.97;98754.94;5158391;27;42696;-76
2023/06/23 04:27:50;;;;;;;4.40;3.87;;;;;;;21.34;63.57;98767.25;5176335;27;42078;-76
2023/06/23 04:30:19;;;;;;;7.20;4.57;;;;;;;21.34;63.71;98769.94;5194975;27;41041;-77
2023/06/23 04:32:47;;;;;;;5.83;3.77;;;;;;;21.34;63.83;98765.38;5158319;27;40734;-76
2023/06/23 04:35:15;;;;;;;5.37;4.67;;;;;;;21.30;63.99;98771.25;5176508;27;43775;-76
2023/06/23 04:37:47;;;;;;;4.20;3.90;;;;;;;21.31;63.75;98771.09;5176571;27;41525;-76
2023/06/23 04:40:22;;;;;;;4.70;4.30;;;;;;;21.34;63.55;98786.09;5174758;27;40075;-76
2023/06/23 04:42:55;;;;;;;4.67;4.27;;;;;;;21.30;63.59;98774.78;5176449;27;40796;-76
2023/06/23 04:45:25;;;;;;;8.50;4.13;;;;;;;21.24;63.70;98780.88;5158776;27;41769;-75
2023/06/23 04:47:55;;;;;;;4.63;4.23;;;;;;;21.26;63.81;98786.09;5176238;27;40647;-76
2023/06/23 04:50:26;;;;;;;5.23;4.17;;;;;;;21.22;63.98;98787.41;5158721;27;40303;-76
2023/06/23 04:53:02;;;;;;;5.30;4.80;;;;;;;21.16;64.43;98786.19;5158928;27;41323;-77
2023/06/23 04:55:34;;;;;;;4.47;4.07;;;;;;;21.21;64.24;98785.72;5174716;27;42945;-75
2023/06/23 04:58:06;;;;;;;4.47;4.00;;;;;;;21.21;64.50;98785.72;5158809;27;42179;-77
2023/06/23 05:00:34;;;;;;;5.27;4.50;;;;;;;21.16;64.15;98788.88;5174918;27;40682;-75
2023/06/23 05:03:03;;;;;;;4.30;3.90;;;;;;;21.16;63.96;98803.19;5193595;27;41671;-76
2023/06/23 05:05:32;;;;;;;6.70;5.10;;;;;;;21.14;64.34;98788.22;5175045;27;43383;-75
2023/06/23 05:08:03;;;;;;;4.87;4.37;;;;;;;21.13;63.73;98790.06;5175412;27;42092;-76
2023/06/23 05:10:33;;;;;;;4.60;4.20;;;;;;;21.17;63.55;98796.78;5174050;27;41330;-75
2023/06/23 05:13:04;;;;;;;5.00;4.50;;;;;;;21.21;63.55;98796.50;5194016;27;42614;-76
2023/06/23 05:15:31;;;;;;;5.03;4.10;;;;;;;21.26;63.36;98804.94;5194242;27;43860;-74
2023/06/23 05:18:01;;;;;;;4.73;4.23;;;;;;;21.28;62.88;98808.28;5194000;27;42257;-77
2023/06/23 05:20:31;;;;;;;5.03;3.80;;;;;;;21.30;62.70;98817.91;5175379;27;40462;-76
2023/06/23 05:23:04;;;;;;;4.43;3.83;;;;;;;21.28;62.53;98808.28;5175397;27;41796;-77
2023/06/23 05:25:33;;;;;;;5.47;3.70;;;;;;;21.27;62.48;98820.91;5173855;27;42456;-78
2023/06/23 05:28:03;;;;;;;4.50;3.80;;;;;;;21.21;62.51;98812.66;5194287;27;42413;-76
2023/06/23 05:30:34;;;;;;;4.57;3.63;;;;;;;21.25;62.31;98830.19;5193613;27;40993;-76
2023/06/23 05:33:04;;;;;;;4.23;3.90;;;;;;;21.09;62.30;98807.53;5175387;27;41777;-77
2023/06/23 05:35:32;;;;;;;3.90;3.60;;;;;;;21.13;62.62;98816.16;5158971;27;41868;-79
2023/06/23 05:38:04;;;;;;;5.23;4.27;;;;;;;21.16;62.70;98811.25;5142381;27;41399;-81
2023/06/23 05:40:32;;;;;;;4.20;3.80;;;;;;;21.20;62.27;98810.97;5157445;27;41054;-81
2023/06/23 05:43:00;;;;;;;4.80;3.80;;;;;;;21.35;62.39;98836.28;5170662;27;41893;-82
2023/06/23 05:45:27;;;;;;;6.90;3.90;;;;;;;21.36;62.25;98854.97;5176694;27;41692;-82
2023/06/23 05:48:03;;;;;;;4.23;3.80;;;;;;;21.29;62.41;98837.75;5136101;27;42804;-86
2023/06/23 05:50:34;;;;;;;4.17;3.77;;;;;;;21.20;62.23;98848.69;5141265;27;38890;-81
2023/06/23 05:53:07;;;;;;;4.00;3.70;;;;;;;21.24;62.51;98860.81;5167423;27;41136;-83
2023/06/23 05:55:38;;;;;;;3.90;3.50;;;;;;;21.15;62.64;98852.66;5162779;27;41962;-78
2023/06/23 05:58:10;;;;;;;4.10;3.70;;;;;;;21.00;62.49;98843.53;5162514;27;41404;-80
2023/06/23 06:00:45;;;;;;;4.33;3.93;;;;;;;21.10;63.07;98867.63;5178946;27;40793;-80
2023/06/23 06:03:16;;;;;;;6.20;3.77;;;;;;;21.07;62.80;98866.09;5192941;27;41793;-80
2023/06/23 06:05:48;;;;;;;5.67;3.87;;;;;;;21.08;62.73;98867.78;5195994;27;43084;-79
2023/06/23 06:08:17;;;;;;;4.40;3.97;;;;;;;20.96;62.86;98858.31;5160991;27;42565;-77
2023/06/23 06:10:47;;;;;;;4.70;3.80;;;;;;;21.02;62.76;98875.66;5160871;27;38871;-80
2023/06/23 06:13:16;;;;;;;4.00;3.70;;;;;;;21.03;62.77;98869.28;5197134;27;42784;-78
2023/06/23 06:15:46;;;;;;;3.97;3.67;;;;;;;21.03;62.89;98880.88;5177862;27;43139;-82
2023/06/23 06:18:16;;;;;;;4.30;3.90;;;;;;;21.04;63.23;98887.97;5178103;27;42563;-77
2023/06/23 06:20:47;;;;;;;6.73;3.80;;;;;;;21.03;62.88;98888.13;5160371;27;39140;-80
2023/06/23 06:23:18;;;;;;;4.00;3.70;;;;;;;20.90;62.57;98887.72;5197060;27;41453;-80
2023/06/23 06:25:49;;;;;;;4.13;3.80;;;;;;;20.97;62.57;98908.47;5178091;27;42844;-78
2023/06/23 06:28:19;;;;;;;3.80;3.40;;;;;;;20.91;62.31;98903.72;5174612;27;42216;-81
2023/06/23 06:30:49;;;;;;;4.23;3.83;;;;;;;21.01;62.44;98914.41;5160775;27;41181;-79
2023/06/23 06:33:19;;;;;;;4.17;3.17;;;;;;;20.98;62.31;98931.72;5160556;27;41745;-80
2023/06/23 06:35:51;;;;;;;3.13;2.87;;;;;;;20.91;62.36;98903.72;5161855;27;42063;-81
2023/06/23 06:38:21;;;;;;;4.27;3.53;;;;;;;20.93;62.74;98911.63;5195253;27;43011;-85
2023/06/23 06:40:53;;;;;;;4.00;3.60;;;;;;;20.93;62.43;98922.41;5162239;27;38826;-85
2023/06/23 06:43:21;;;;;;;4.93;3.40;;;;;;;21.01;62.43;98935.94;5179556;27;41381;-83
2023/06/23 06:45:51;;;;;;;4.10;3.80;;;;;;;20.91;62.03;98921.72;5162224;27;41718;-88
2023/06/23 06:48:21;;;;;;;3.23;2.93;;;;;;;20.93;62.20;98934.03;5161324;27;41228;-83
2023/06/23 06:50:50;;;;;;;3.50;3.20;;;;;;;20.91;62.59;98938.72;5178822;27;40356;-76
2023/06/23 06:53:18;;;;;;;3.30;2.90;;;;;;;20.84;62.91;98934.97;5178635;27;41913;-81
2023/06/23 06:55:49;;;;;;;3.63;3.33;;;;;;;21.00;62.63;98962.03;5177826;27;42841;-84
2023/06/23 06:58:17;;;;;;;4.47;3.50;;;;;;;21.04;62.81;98963.38;5179033;27;42838;-81
2023/06/23 07:00:45;;;;;;;4.00;3.60;;;;;;;20.96;62.33;98970.56;5177993;27;39983;-79
2023/06/23 07:03:14;;;;;;;4.50;3.43;;;;;;;20.99;62.40;98986.41;5177048;27;41003;-84
2023/06/23 07:05:42;;;;;;;4.93;3.30;;;;;;;21.02;62.74;98991.44;5160284;27;41883;-80
2023/06/23 07:08:10;;;;;;;4.47;3.40;;;;;;;20.96;62.13;98992.94;5159871;27;41703;-80
2023/06/23 07:10:38;;;;;;;3.70;3.30;;;;;;;21.03;62.45;98999.38;5177440;27;39012;-80
2023/06/23 07:13:07;;;;;;;4.00;3.70;;;;;;;20.89;62.18;98981.13;5177547;27;42705;-80
2023/06/23 07:15:35;;;;;;;4.03;3.50;;;;;;;21.07;62.40;99008.84;5195886;27;43476;-79
2023/06/23 07:18:03;;;;;;;4.50;3.20;;;;;;;21.04;62.00;99001.06;5177571;27;42434;-87
2023/06/23 07:20:30;;;;;;;3.63;3.20;;;;;;;21.06;62.14;99007.16;5177425;27;40016;-82
2023/06/23 07:22:58;;;;;;;3.70;3.40;;;;;;;21.00;62.01;98998.88;5159852;27;40605;-85
2023/06/23 07:25:26;;;;;;;5.10;4.00;;;;;;;21.01;61.94;99011.34;5177753;27;41909;-84
2023/06/23 07:27:53;;;;;;;3.80;3.50;;;;;;;20.96;62.37;99013.63;5177602;27;42935;-82
2023/06/23 07:30:23;;;;;;;4.73;4.00;;;;;;;20.95;62.02;99028.94;5159361;27;40047;-83
2023/06/23 07:32:51;;;;;;;9.53;3.70;;;;;;;20.85;62.59;99011.22;5177488;27;40878;-78
2023/06/23 07:35:19;;;;;;;4.30;3.70;;;;;;;20.87;62.48;99026.22;5161668;27;42899;-86
2023/06/23 07:37:47;;;;;;;3.97;3.57;;;;;;;20.93;62.37;99025.56;5178086;27;42157;-87
2023/06/23 07:40:14;;;;;;;3.93;3.53;;;;;;;20.85;62.26;99021.97;5178717;27;38985;-86
2023/06/23 07:42:42;;;;;;;4.33;3.77;;;;;;;20.91;62.18;99027.56;5178168;27;41446;-87
2023/06/23 07:45:10;;;;;;;6.97;4.10;;;;;;;20.80;62.49;99030.50;5161154;27;41676;-85
2023/06/23 07:47:40;;;;;;;6.03;3.73;;;;;;;20.88;62.61;99044.06;5178603;27;42357;-88
2023/06/23 07:50:08;;;;;;;5.23;3.93;;;;;;;20.91;62.70;99049.09;5161475;27;39372;-86
2023/06/23 07:52:36;;;;;;;4.30;3.90;;;;;;;20.70;62.39;99027.91;5160184;27;40732;-82
2023/06/23 07:55:04;;;;;;;4.23;3.73;;;;;;;20.72;62.54;99033.16;5160543;27;41948;-81
2023/06/23 07:57:32;;;;;;;6.00;3.80;;;;;;;20.93;62.67;99068.66;5160392;27;42469;-84
2023/06/23 08:00:00;;;;;;;4.83;4.33;;;;;;;20.94;62.42;99074.88;5177853;27;39071;-80
2023/06/23 08:02:28;;;;;;;4.40;4.00;;;;;;;20.92;62.73;99066.09;5158724;27;40708;-81
2023/06/23 08:04:57;;;;;;;4.37;3.97;;;;;;;20.92;62.60;99082.25;5195608;27;42831;-79
2023/06/23 08:07:25;;;;;;;4.40;4.00;;;;;;;20.87;62.60;99069.28;5158457;27;42240;-80
2023/06/23 08:09:52;;;;;;;4.30;3.90;;;;;;;20.96;62.65;99079.09;5176908;27;39945;-81
2023/06/23 08:12:20;;;;;;;5.03;4.10;;;;;;;20.98;62.37;99089.72;5158869;27;41030;-81
2023/06/23 08:14:48;;;;;;;4.90;4.40;;;;;;;20.89;62.52;99075.38;5159460;27;41533;-87
2023/06/23 08:17:15;;;;;;;4.10;3.70;;;;;;;20.92;62.65;99090.34;5159557;27;41219;-86
2023/06/23 08:19:43;;;;;;;5.13;3.80;;;;;;;20.74;62.42;99061.59;5159682;27;39449;-83
2023/06/23 08:22:14;;;;;;;4.30;3.90;;;;;;;20.99;61.92;99100.34;5159104;27;40300;-82
2023/06/23 08:24:41;;;;;;;3.80;3.50;;;;;;;21.01;62.35;99102.88;5195321;27;42577;-83
2023/06/23 08:27:09;;;;;;;3.93;3.60;;;;;;;20.91;62.49;99102.94;5159236;27;40953;-83
2023/06/23 08:29:38;;;;;;;3.60;3.30;;;;;;;20.95;61.93;99120.50;5176688;27;40593;-85
2023/06/23 08:32:07;;;;;;;3.57;3.27;;;;;;;20.95;61.98;99106.19;5142194;27;40628;-84
2023/06/23 08:34:36;;;;;;;3.70;3.40;;;;;;;21.04;62.30;99124.94;5159826;27;41999;-81
2023/06/23 08:37:04;;;;;;;4.60;3.57;;;;;;;21.07;62.34;99135.41;5177927;27;41191;-90
2023/06/23 08:39:33;;;;;;;3.67;3.37;;;;;;;20.77;61.99;99090.06;5160337;27;38946;-89
2023/06/23 08:42:03;;;;;;;4.07;3.77;;;;;;;21.26;61.90;99144.34;5160440;27;40637;-84
2023/06/23 08:44:32;;;;;;;3.93;3.53;;;;;;;21.33;61.70;99148.09;5157838;27;41974;-84
2023/06/23 08:47:04;;;;;;;4.67;3.97;;;;;;;21.35;61.44;99144.25;5159200;27;41287;-85
2023/06/23 08:49:34;;;;;;;4.70;3.77;;;;;;;21.22;61.09;99159.13;5168786;27;40136;-83
2023/06/23 08:52:02;;;;;;;5.13;4.63;;;;;;;21.29;61.30;99160.19;5211878;27;42604;-84
2023/06/23 08:54:31;;;;;;;4.70;4.20;;;;;;;21.34;61.31;99160.56;5179591;27;43201;-84
2023/06/23 08:57:00;;;;;;;10.17;4.53;;;;;;;21.37;61.06;99144.09;5159750;27;41780;-85
2023/06/23 08:59:28;;;;;;;4.70;4.20;;;;;;;21.54;60.81;99163.91;5159095;27;39753;-82
2023/06/23 09:01:56;;;;;;;3.90;3.60;;;;;;;21.62;59.83;99178.31;5158774;27;40712;-84
2023/06/23 09:04:23;;;;;;;4.53;4.13;;;;;;;21.51;59.87;99183.97;5175980;27;41585;-85
2023/06/23 09:06:51;;;;;;;4.87;3.77;;;;;;;21.53;60.37;99184.63;5176882;27;42314;-79
2023/06/23 09:09:20;;;;;;;4.27;3.87;;;;;;;21.48;60.50;99182.41;5176019;27;40182;-80
2023/06/23 09:11:49;;;;;;;4.63;3.47;;;;;;;21.42;61.17;99188.41;5158912;27;40821;-82
2023/06/23 09:14:19;;;;;;;7.60;3.87;;;;;;;21.37;60.65;99177.28;5176668;27;41676;-83
2023/06/23 09:16:47;;;;;;;5.43;3.93;;;;;;;21.42;61.07;99199.19;5159028;27;41242;-87
2023/06/23 09:19:16;;;;;;;4.73;3.93;;;;;;;21.33;60.52;99193.91;5179564;27;39928;-88
2023/06/23 09:21:43;;;;;;;4.33;3.93;;;;;;;21.06;60.63;99166.03;5162133;27;40323;-86
2023/06/23 09:24:12;;;;;;;4.87;4.47;;;;;;;21.07;60.99;99165.03;5145374;27;41582;-82
2023/06/23 09:26:46;;;;;;;4.30;3.90;;;;;;;21.36;61.11;99199.00;5161727;27;41017;-88
2023/06/23 09:29:18;;;;;;;4.87;4.40;;;;;;;21.40;60.65;99205.75;5176210;27;39834;-82
2023/06/23 09:31:47;;;;;;;4.00;3.70;;;;;;;21.49;61.43;99202.13;5176691;27;41821;-84
2023/06/23 09:34:25;;;;;;;4.10;3.80;;;;;;;21.58;60.97;99211.13;5179993;27;43450;-81
2023/06/23 09:36:54;;;;;;;4.13;3.80;;;;;;;21.73;60.78;99220.34;5198739;27;42023;-80
2023/06/23 09:39:23;;;;;;;4.50;4.03;;;;;;;21.62;60.32;99199.88;5199072;27;40159;-92
2023/06/23 09:41:57;;;;;;;4.57;4.00;;;;;;;21.74;60.79;99217.47;5163602;27;40672;-86
2023/06/23 09:44:35;;;;;;;4.77;4.10;;;;;;;21.81;60.94;99229.31;5162802;27;43226;-83
2023/06/23 09:47:04;;;;;;;4.27;3.87;;;;;;;21.95;61.54;99235.13;5163580;27;41477;-86
2023/06/23 09:49:38;;;;;;;4.90;4.10;;;;;;;21.96;61.88;99244.91;5162884;27;39743;-84
2023/06/23 09:52:07;;;;;;;4.87;4.47;;;;;;;21.84;62.74;99237.09;5163343;27;42215;-79
2023/06/23 09:54:36;;;;;;;4.93;4.40;;;;;;;21.86;62.35;99237.78;5161823;27;41608;-79
2023/06/23 09:57:09;;;;;;;4.83;4.43;;;;;;;21.98;62.90;99226.72;5162953;27;42854;-86
2023/06/23 09:59:40;;;;;;;5.10;4.63;;;;;;;22.06;60.72;99224.09;5180221;27;39150;-83
2023/06/23 10:02:09;;;;;;;4.67;4.17;;;;;;;22.17;60.27;99254.34;5175303;27;41673;-86
2023/06/23 10:04:37;;;;;;;5.10;4.60;;;;;;;22.16;59.88;99263.44;5197380;27;43731;-83
2023/06/23 10:07:20;;;;;;;5.17;4.67;;;;;;;22.08;60.04;99251.78;5178361;27;41522;-86
2023/06/23 10:09:52;;;;;;;5.83;4.50;;;;;;;22.15;59.64;99256.34;5155613;27;39809;-84
2023/06/23 10:12:22;;;;;;;4.77;4.37;;;;;;;22.06;59.91;99243.84;5158765;27;41843;-84
2023/06/23 10:14:52;;;;;;;4.83;4.33;;;;;;;22.21;60.56;99260.28;5161111;27;41684;-81
2023/06/23 10:17:20;;;;;;;5.73;4.37;;;;;;;22.16;60.84;99249.13;5160901;27;43058;-81
2023/06/23 10:19:48;;;;;;;5.20;4.70;;;;;;;22.31;60.87;99262.84;5197313;27;39821;-81
2023/06/23 10:22:18;;;;;;;4.83;4.33;;;;;;;22.38;60.34;99272.84;5160750;27;42023;-82
2023/06/23 10:24:48;;;;;;;5.10;4.60;;;;;;;22.56;59.46;99275.47;5178159;27;42612;-81
2023/06/23 10:27:20;;;;;;;4.93;4.50;;;;;;;22.70;58.66;99287.50;5178282;27;42263;-82
2023/06/23 10:29:52;;;;;;;5.00;4.30;;;;;;;22.83;58.40;99285.25;5175657;27;39739;-82
2023/06/23 10:32:23;;;;;;;6.10;4.97;;;;;;;22.79;57.66;99308.16;5160426;27;40678;-81
2023/06/23 10:34:52;;;;;;;4.30;3.90;;;;;;;22.69;56.18;99307.44;5161967;27;42272;-81
2023/06/23 10:37:23;;;;;;;6.27;4.17;;;;;;;22.50;56.46;99306.63;5179112;27;42183;-83
2023/06/23 10:39:53;;;;;;;4.70;4.30;;;;;;;22.49;56.80;99302.28;5162371;27;41930;-81
2023/06/23 10:42:22;;;;;;;5.77;4.13;;;;;;;22.38;56.42;99313.31;5178721;27;41881;-77
2023/06/23 10:44:52;;;;;;;4.07;3.67;;;;;;;22.18;56.21;99287.56;5177018;27;43406;-80
2023/06/23 10:47:22;;;;;;;5.03;3.70;;;;;;;22.46;56.53;99317.94;5160330;27;41074;-80
2023/06/23 10:49:51;;;;;;;7.07;4.20;;;;;;;22.62;55.88;99325.28;5177175;27;39972;-79
2023/06/23 10:52:19;;;;;;;6.63;3.97;;;;;;;22.57;55.14;99332.00;5176974;27;41507;-78
2023/06/23 10:54:47;;;;;;;4.67;3.90;;;;;;;22.43;55.67;99323.66;5159442;27;42133;-83
2023/06/23 10:57:15;;;;;;;4.27;3.87;;;;;;;22.27;55.57;99335.19;5176697;27;41461;-78
2023/06/23 10:59:44;;;;;;;4.20;3.80;;;;;;;22.25;55.68;99348.00;5176641;27;38901;-76
2023/06/23 11:02:21;;;;;;;3.77;3.47;;;;;;;22.37;55.92;99344.03;5159506;27;41432;-77
2023/06/23 11:04:56;;;;;;;4.50;3.93;;;;;;;22.72;55.82;99345.75;5138187;27;44130;-78
2023/06/23 11:07:24;;;;;;;3.70;3.40;;;;;;;23.20;54.26;99355.09;5154669;27;42083;-82
2023/06/23 11:10:04;;;;;;;3.27;2.97;;;;;;;23.49;54.33;99352.78;5196768;27;40563;-84
2023/06/23 11:12:34;;;;;;;3.27;3.07;;;;;;;23.52;53.29;99346.25;5159249;27;41687;-80
2023/06/23 11:15:13;;;;;;;4.10;3.33;;;;;;;23.79;52.96;99362.19;5159655;27;41625;-79
2023/06/23 11:17:42;;;;;;;4.47;3.40;;;;;;;23.92;53.00;99365.22;5173715;27;43284;-79
2023/06/23 11:20:13;;;;;;;3.00;2.80;;;;;;;23.87;51.90;99388.38;5159569;27;39985;-81
2023/06/23 11:22:54;;;;;;;5.10;3.10;;;;;;;23.84;51.99;99386.88;5177351;27;40896;-82
2023/06/23 11:25:27;;;;;;;3.20;2.90;;;;;;;23.77;52.26;99388.53;5175535;27;43689;-81
2023/06/23 11:28:34;;;;;;;3.50;3.20;;;;;;;23.65;52.45;99381.75;5159716;27;41907;-81
2023/06/23 11:31:04;;;;;;;3.63;3.30;;;;;;;23.58;52.66;99375.34;5130492;27;40825;-82
2023/06/23 11:33:33;;;;;;;3.47;2.90;;;;;;;23.38;52.15;99369.31;5096729;27;40678;-81
2023/06/23 11:36:05;;;;;;;4.20;2.90;;;;;;;23.35;52.32;99380.50;5147453;27;42962;-81
2023/06/23 11:38:33;;;;;;;3.40;3.10;;;;;;;23.60;51.81;99384.97;5161172;27;42670;-81
2023/06/23 11:41:02;;;;;;;2.93;2.67;;;;;;;24.13;51.02;99415.28;5196347;27;40318;-83
2023/06/23 11:43:34;;;;;;;2.97;2.60;;;;;;;24.50;49.71;99412.09;5177245;27;40778;-78
2023/06/23 11:46:08;;;;;;;3.10;2.50;;;;;;;24.86;49.37;99417.94;5176900;27;41648;-83
2023/06/23 11:48:37;;;;;;;2.70;2.50;;;;;;;24.91;48.11;99366.81;5175835;27;41885;-78